createdAt,value
2022-09-10T00:01:40.044Z,100656.00
2022-09-10T00:04:12.291Z,100658.22
2022-09-10T00:06:41.193Z,100666.13
2022-09-10T00:09:12.592Z,100660.28
2022-09-10T00:11:42.584Z,100660.69
2022-09-10T00:14:15.209Z,100665.84
2022-09-10T00:16:44.607Z,100660.00
2022-09-10T00:19:13.291Z,100658.50
2022-09-10T00:21:41.947Z,100662.25
2022-09-10T00:24:11.872Z,100669.69
2022-09-10T00:26:40.499Z,100672.22
2022-09-10T00:29:10.802Z,100662.22
2022-09-10T00:31:40.006Z,100663.06
2022-09-10T00:34:09.609Z,100660.72
2022-09-10T00:36:40.925Z,100659.66
2022-09-10T00:39:13.057Z,100660.25
2022-09-10T00:41:43.551Z,100659.69
2022-09-10T00:44:45.454Z,100663.03
2022-09-10T00:47:18.201Z,100664.34
2022-09-10T00:49:50.699Z,100664.16
2022-09-10T00:52:19.937Z,100658.31
2022-09-10T00:54:50.640Z,100663.75
2022-09-10T00:57:22.379Z,100663.38
2022-09-10T00:59:55.134Z,100667.34
2022-09-10T01:02:23.757Z,100661.09
2022-09-10T01:04:54.319Z,100653.28
2022-09-10T01:07:24.163Z,100660.78
2022-09-10T01:09:54.279Z,100650.13
2022-09-10T01:12:39.084Z,100658.88
2022-09-10T01:15:23.171Z,100647.09
2022-09-10T01:18:20.983Z,100644.94
2022-09-10T01:21:15.674Z,100637.97
2022-09-10T01:24:24.119Z,100640.94
2022-09-10T01:27:33.067Z,100638.13
2022-09-10T01:30:21.984Z,100636.59
2022-09-10T01:33:06.909Z,100631.28
2022-09-10T01:35:43.152Z,100627.66
2022-09-10T01:38:26.421Z,100627.31
2022-09-10T01:40:56.353Z,100632.88
2022-09-10T01:43:25.253Z,100638.25
2022-09-10T01:46:06.514Z,100631.53
2022-09-10T01:49:07.873Z,100630.44
2022-09-10T01:51:53.780Z,100629.41
2022-09-10T01:54:35.379Z,100633.59
2022-09-10T01:57:11.147Z,100630.44
2022-09-10T01:59:48.911Z,100633.50
2022-09-10T02:02:23.736Z,100628.41
2022-09-10T02:04:54.305Z,100641.22
2022-09-10T02:07:26.522Z,100638.59
2022-09-10T02:09:55.903Z,100635.91
2022-09-10T02:12:24.851Z,100631.97
2022-09-10T02:14:56.289Z,100629.66
2022-09-10T02:17:31.031Z,100633.22
2022-09-10T02:20:02.202Z,100629.56
2022-09-10T02:22:36.388Z,100630.06
2022-09-10T02:25:06.450Z,100630.75
2022-09-10T02:27:35.224Z,100636.81
2022-09-10T02:30:03.880Z,100633.22
2022-09-10T02:32:33.989Z,100634.91
2022-09-10T02:35:02.517Z,100638.47
2022-09-10T02:37:31.296Z,100625.63
2022-09-10T02:39:59.851Z,100631.00
2022-09-10T02:42:28.366Z,100631.28
2022-09-10T02:44:56.923Z,100628.97
2022-09-10T02:47:25.459Z,100632.41
2022-09-10T02:49:55.402Z,100635.03
2022-09-10T02:52:24.076Z,100633.03
2022-09-10T02:54:52.611Z,100628.00
2022-09-10T02:57:21.127Z,100626.34
2022-09-10T02:59:49.709Z,100635.47
2022-09-10T03:02:18.406Z,100636.28
2022-09-10T03:04:47.045Z,100632.69
2022-09-10T03:07:20.088Z,100626.81
2022-09-10T03:09:49.667Z,100623.41
2022-09-10T03:12:18.739Z,100635.97
2022-09-10T03:14:48.673Z,100628.47
2022-09-10T03:17:17.268Z,100638.63
2022-09-10T03:19:45.817Z,100633.50
2022-09-10T03:22:14.341Z,100635.81
2022-09-10T03:24:44.280Z,100625.47
2022-09-10T03:27:13.999Z,100638.97
2022-09-10T03:29:42.566Z,100631.50
2022-09-10T03:32:11.083Z,100631.81
2022-09-10T03:34:40.017Z,100625.94
2022-09-10T03:37:08.631Z,100624.56
2022-09-10T03:39:37.190Z,100625.16
2022-09-10T03:42:07.479Z,100631.00
2022-09-10T03:44:36.048Z,100620.81
2022-09-10T03:47:05.003Z,100623.19
2022-09-10T03:49:33.779Z,100622.06
2022-09-10T03:52:02.751Z,100617.84
2022-09-10T03:54:31.265Z,100623.75
2022-09-10T03:57:00.087Z,100634.06
2022-09-10T03:59:30.403Z,100628.97
2022-09-10T04:01:59.396Z,100626.81
2022-09-10T04:04:29.420Z,100630.09
2022-09-10T04:06:57.982Z,100623.94
2022-09-10T04:09:26.536Z,100620.69
2022-09-10T04:11:55.116Z,100616.97
2022-09-10T04:14:23.667Z,100616.38
2022-09-10T04:16:53.658Z,100620.13
2022-09-10T04:19:22.204Z,100624.31
2022-09-10T04:21:52.968Z,100621.75
2022-09-10T04:24:21.921Z,100623.69
2022-09-10T04:26:50.483Z,100629.06
2022-09-10T04:29:19.150Z,100639.28
2022-09-10T04:31:47.791Z,100636.78
2022-09-10T04:34:17.803Z,100636.22
2022-09-10T04:36:46.324Z,100641.38
2022-09-10T04:39:15.511Z,100637.63
2022-09-10T04:41:44.095Z,100642.06
2022-09-10T04:44:13.648Z,100638.53
2022-09-10T04:46:43.475Z,100634.06
2022-09-10T04:49:12.169Z,100633.75
2022-09-10T04:51:42.060Z,100646.59
2022-09-10T04:54:13.558Z,100641.50
2022-09-10T04:56:42.349Z,100637.63
2022-09-10T04:59:11.743Z,100640.75
2022-09-10T05:01:40.239Z,100640.19
2022-09-10T05:04:08.911Z,100644.38
2022-09-10T05:06:37.553Z,100644.09
2022-09-10T05:09:07.436Z,100645.38
2022-09-10T05:11:36.763Z,100647.97
2022-09-10T05:14:05.429Z,100645.19
2022-09-10T05:16:34.022Z,100644.19
2022-09-10T05:19:02.550Z,100642.44
2022-09-10T05:21:31.200Z,100646.81
2022-09-10T05:23:59.712Z,100655.25
2022-09-10T05:26:29.648Z,100660.56
2022-09-10T05:28:59.793Z,100663.81
2022-09-10T05:31:28.906Z,100651.56
2022-09-10T05:33:57.732Z,100656.16
2022-09-10T05:36:26.330Z,100656.44
2022-09-10T05:38:55.277Z,100661.59
2022-09-10T05:41:23.890Z,100660.53
2022-09-10T05:43:53.785Z,100669.72
2022-09-10T05:46:22.463Z,100663.59
2022-09-10T05:48:51.095Z,100665.56
2022-09-10T05:51:19.786Z,100660.16
2022-09-10T05:53:48.343Z,100654.66
2022-09-10T05:56:16.862Z,100661.56
2022-09-10T05:58:46.019Z,100665.28
2022-09-10T06:01:15.909Z,100668.25
2022-09-10T06:03:44.460Z,100666.56
2022-09-10T06:06:13.039Z,100673.88
2022-09-10T06:08:41.570Z,100662.91
2022-09-10T06:11:11.906Z,100665.25
2022-09-10T06:13:42.477Z,100677.16
2022-09-10T06:16:12.127Z,100678.81
2022-09-10T06:18:42.445Z,100682.47
2022-09-10T06:21:15.537Z,100675.00
2022-09-10T06:23:44.229Z,100682.25
2022-09-10T06:26:14.882Z,100676.09
2022-09-10T06:28:44.614Z,100685.78
2022-09-10T06:31:17.180Z,100684.06
2022-09-10T06:33:48.944Z,100686.31
2022-09-10T06:36:17.702Z,100684.28
2022-09-10T06:38:46.239Z,100691.53
2022-09-10T06:41:16.407Z,100684.22
2022-09-10T06:43:46.724Z,100692.00
2022-09-10T06:47:09.529Z,100687.91
2022-09-10T06:49:07.881Z,100691.81
2022-09-10T06:51:36.474Z,100686.03
2022-09-10T06:54:05.181Z,100690.41
2022-09-10T06:56:33.732Z,100694.63
2022-09-10T06:59:02.800Z,100689.78
2022-09-10T07:01:31.977Z,100691.84
2022-09-10T07:04:01.967Z,100690.22
2022-09-10T07:06:33.714Z,100698.22
2022-09-10T07:09:02.749Z,100697.78
2022-09-10T07:11:32.504Z,100695.75
2022-09-10T07:14:02.156Z,100694.97
2022-09-10T07:16:30.835Z,100699.22
2022-09-10T07:19:01.321Z,100700.94
2022-09-10T07:21:31.652Z,100704.56
2022-09-10T07:24:02.212Z,100703.84
2022-09-10T07:26:31.599Z,100706.81
2022-09-10T07:29:00.758Z,100707.94
2022-09-10T07:31:31.411Z,100709.00
2022-09-10T07:34:01.038Z,100704.13
2022-09-10T07:36:31.716Z,100708.34
2022-09-10T07:39:01.770Z,100714.47
2022-09-10T07:41:32.046Z,100707.34
2022-09-10T07:44:00.655Z,100716.31
2022-09-10T07:46:30.105Z,100711.03
2022-09-10T07:49:00.590Z,100716.63
2022-09-10T07:51:33.144Z,100712.91
2022-09-10T07:54:01.750Z,100709.41
2022-09-10T07:56:32.447Z,100716.06
2022-09-10T07:59:02.603Z,100718.47
2022-09-10T08:01:31.820Z,100714.59
2022-09-10T08:04:00.440Z,100716.56
2022-09-10T08:06:29.000Z,100717.81
2022-09-10T08:09:00.032Z,100715.13
2022-09-10T08:11:29.229Z,100720.88
2022-09-10T08:13:57.742Z,100709.50
2022-09-10T08:16:27.026Z,100706.06
2022-09-10T08:18:57.270Z,100719.06
2022-09-10T08:21:26.164Z,100721.59
2022-09-10T08:23:55.895Z,100723.22
2022-09-10T08:26:27.582Z,100718.47
2022-09-10T08:28:57.855Z,100719.53
2022-09-10T08:31:27.567Z,100708.56
2022-09-10T08:33:57.455Z,100714.72
2022-09-10T08:36:26.729Z,100715.03
2022-09-10T08:39:00.708Z,100714.66
2022-09-10T08:41:42.797Z,100707.19
2022-09-10T08:44:17.694Z,100712.47
2022-09-10T08:46:49.516Z,100715.69
2022-09-10T08:49:23.831Z,100708.78
2022-09-10T08:51:57.932Z,100708.00
2022-09-10T08:54:32.513Z,100707.63
2022-09-10T08:57:03.711Z,100710.41
2022-09-10T08:59:37.342Z,100694.94
2022-09-10T09:02:44.871Z,100705.84
2022-09-10T09:05:15.295Z,100701.63
2022-09-10T09:07:44.215Z,100696.28
2022-09-10T09:10:28.832Z,100701.34
2022-09-10T09:13:35.403Z,100701.97
2022-09-10T09:16:14.781Z,100705.06
2022-09-10T09:19:00.376Z,100698.88
2022-09-10T09:21:37.042Z,100696.09
2022-09-10T09:24:13.882Z,100700.38
2022-09-10T09:26:46.354Z,100704.34
2022-09-10T09:29:20.488Z,100702.88
2022-09-10T09:31:53.140Z,100702.34
2022-09-10T09:34:29.394Z,100691.00
2022-09-10T09:37:03.380Z,100686.09
2022-09-10T09:39:38.338Z,100694.78
2022-09-10T09:42:13.262Z,100700.28
2022-09-10T09:44:52.757Z,100697.19
2022-09-10T09:47:23.827Z,100698.47
2022-09-10T09:49:52.438Z,100718.84
2022-09-10T09:52:23.432Z,100699.16
2022-09-10T09:55:14.853Z,100696.91
2022-09-10T09:57:44.253Z,100688.66
2022-09-10T10:03:23.559Z,100684.81
2022-09-10T10:05:52.208Z,100681.25
2022-09-10T10:08:31.434Z,100697.81
2022-09-10T10:11:00.829Z,100693.53
2022-09-10T10:13:39.024Z,100696.94
2022-09-10T10:16:18.746Z,100705.84
2022-09-10T10:18:49.313Z,100698.69
2022-09-10T10:21:21.248Z,100701.50
2022-09-10T10:23:50.612Z,100703.63
2022-09-10T10:26:30.443Z,100705.16
2022-09-10T10:29:04.062Z,100703.47
2022-09-10T10:31:42.846Z,100705.69
2022-09-10T10:34:39.403Z,100707.94
2022-09-10T10:37:16.095Z,100703.19
2022-09-10T10:40:14.225Z,100708.22
2022-09-10T10:42:47.205Z,100707.09
2022-09-10T10:45:37.086Z,100706.16
2022-09-10T10:48:12.436Z,100703.06
2022-09-10T10:50:54.772Z,100709.84
2022-09-10T10:53:43.262Z,100707.63
2022-09-10T10:56:18.831Z,100716.00
2022-09-10T10:59:05.183Z,100717.56
2022-09-10T11:01:38.391Z,100718.75
2022-09-10T11:04:28.056Z,100720.09
2022-09-10T11:07:05.665Z,100707.16
2022-09-10T11:09:40.943Z,100711.78
2022-09-10T11:12:16.769Z,100711.00
2022-09-10T11:14:52.481Z,100715.09
2022-09-10T11:17:29.854Z,100714.47
2022-09-10T11:20:27.805Z,100717.50
2022-09-10T11:23:10.619Z,100711.72
2022-09-10T11:25:47.602Z,100717.84
2022-09-10T11:28:20.344Z,100706.50
2022-09-10T11:30:58.786Z,100711.06
2022-09-10T11:33:33.823Z,100709.94
2022-09-10T11:36:12.025Z,100708.19
2022-09-10T11:38:53.110Z,100705.97
2022-09-10T11:41:25.945Z,100702.69
2022-09-10T11:44:04.542Z,100708.09
2022-09-10T11:46:39.184Z,100708.75
2022-09-10T11:49:16.702Z,100711.34
2022-09-10T11:51:46.085Z,100710.44
2022-09-10T11:54:19.146Z,100711.97
2022-09-10T11:56:59.725Z,100717.59
2022-09-10T11:59:49.426Z,100716.16
2022-09-10T12:03:07.547Z,100715.31
2022-09-10T12:05:49.289Z,100711.47
2022-09-10T12:08:33.703Z,100715.31
2022-09-10T12:11:15.663Z,100714.25
2022-09-10T12:13:45.785Z,100708.91
2022-09-10T12:16:24.374Z,100721.03
2022-09-10T12:18:56.718Z,100720.44
2022-09-10T12:21:34.579Z,100713.97
2022-09-10T12:24:08.554Z,100708.75
2022-09-10T12:26:46.001Z,100713.25
2022-09-10T12:29:33.451Z,100710.75
2022-09-10T12:32:38.443Z,100696.16
2022-09-10T12:35:47.126Z,100705.16
2022-09-10T12:38:51.893Z,100699.56
2022-09-10T12:42:33.111Z,100694.81
2022-09-10T12:45:01.395Z,100691.22
2022-09-10T12:47:53.640Z,100695.41
2022-09-10T12:50:46.014Z,100694.47
2022-09-10T12:54:07.928Z,100697.75
2022-09-10T12:57:12.888Z,100705.28
2022-09-10T13:00:13.139Z,100701.47
2022-09-10T13:02:52.499Z,100706.00
2022-09-10T13:05:29.648Z,100702.56
2022-09-10T13:08:18.786Z,100700.81
2022-09-10T13:10:50.956Z,100699.06
2022-09-10T13:13:35.841Z,100698.50
2022-09-10T13:16:07.442Z,100696.59
2022-09-10T13:18:37.182Z,100695.25
2022-09-10T13:21:52.332Z,100696.09
2022-09-10T13:24:39.720Z,100701.66
2022-09-10T13:27:23.940Z,100707.38
2022-09-10T13:30:10.457Z,100703.88
2022-09-10T13:32:45.362Z,100711.78
2022-09-10T13:35:52.704Z,100709.59
2022-09-10T13:39:12.292Z,100712.53
2022-09-10T13:42:14.921Z,100709.00
2022-09-10T13:45:20.961Z,100716.09
2022-09-10T13:48:01.089Z,100716.59
2022-09-10T13:50:37.873Z,100715.53
2022-09-10T13:53:10.774Z,100724.28
2022-09-10T13:55:41.636Z,100721.38
2022-09-10T13:58:17.287Z,100722.13
2022-09-10T14:00:54.689Z,100719.53
2022-09-10T14:03:30.247Z,100715.69
2022-09-10T14:06:01.584Z,100727.56
2022-09-10T14:08:35.688Z,100722.56
2022-09-10T14:11:14.425Z,100714.31
2022-09-10T14:13:48.488Z,100719.09
2022-09-10T14:16:29.499Z,100708.63
2022-09-10T14:19:03.871Z,100720.06
2022-09-10T14:21:32.794Z,100719.69
2022-09-10T14:24:01.319Z,100721.53
2022-09-10T14:26:33.719Z,100716.31
2022-09-10T14:29:04.588Z,100719.13
2022-09-10T14:31:38.265Z,100722.19
2022-09-10T14:34:33.230Z,100739.09
2022-09-10T14:37:03.082Z,100734.75
2022-09-10T14:39:31.460Z,100739.72
2022-09-10T14:42:22.395Z,100747.63
2022-09-10T14:44:50.723Z,100753.38
2022-09-10T14:47:30.324Z,100751.31
2022-09-10T14:50:38.756Z,100759.25
2022-09-10T14:53:06.981Z,100760.56
2022-09-10T14:55:35.275Z,100760.25
2022-09-10T14:58:03.507Z,100751.66
2022-09-10T15:00:31.912Z,100756.19
2022-09-10T15:03:00.582Z,100759.28
2022-09-10T15:05:29.730Z,100763.03
2022-09-10T15:07:59.375Z,100758.59
2022-09-10T15:10:27.707Z,100767.59
2022-09-10T15:12:56.614Z,100771.47
2022-09-10T15:15:26.902Z,100766.84
2022-09-10T15:17:55.157Z,100761.44
2022-09-10T15:20:27.633Z,100764.31
2022-09-10T15:22:56.226Z,100774.41
2022-09-10T15:25:38.184Z,100771.69
2022-09-10T15:28:07.916Z,100770.91
2022-09-10T15:30:36.998Z,100772.59
2022-09-10T15:33:06.165Z,100767.38
2022-09-10T15:35:34.480Z,100773.09
2022-09-10T15:38:02.689Z,100774.97
2022-09-10T15:40:32.362Z,100782.94
2022-09-10T15:43:00.645Z,100785.78
2022-09-10T15:45:28.912Z,100788.50
2022-09-10T15:47:57.587Z,100787.91
2022-09-10T15:50:25.919Z,100786.84
2022-09-10T15:52:54.205Z,100793.13
2022-09-10T15:55:22.439Z,100793.09
2022-09-10T15:57:53.176Z,100796.78
2022-09-10T16:00:21.953Z,100795.25
2022-09-10T16:02:53.096Z,100807.56
2022-09-10T16:05:22.417Z,100816.66
2022-09-10T16:07:50.622Z,100800.94
2022-09-10T16:10:19.145Z,100806.81
2022-09-10T16:12:47.409Z,100792.16
2022-09-10T16:15:17.370Z,100804.25
2022-09-10T16:17:45.812Z,100807.53
2022-09-10T16:20:14.043Z,100814.53
2022-09-10T16:22:42.287Z,100816.34
2022-09-10T16:25:12.096Z,100820.41
2022-09-10T16:27:43.244Z,100821.81
2022-09-10T16:30:13.860Z,100829.09
2022-09-10T16:32:43.438Z,100834.03
2022-09-10T16:35:11.960Z,100832.25
2022-09-10T16:37:40.173Z,100835.09
2022-09-10T16:40:11.633Z,100850.03
2022-09-10T16:42:39.895Z,100838.91
2022-09-10T16:45:10.283Z,100849.03
2022-09-10T16:47:38.500Z,100850.59
2022-09-10T16:50:09.603Z,100855.75
2022-09-10T16:52:37.913Z,100857.28
2022-09-10T16:55:07.094Z,100860.03
2022-09-10T16:57:35.335Z,100858.47
2022-09-10T17:00:06.135Z,100865.06
2022-09-10T17:02:35.203Z,100861.81
2022-09-10T17:05:03.482Z,100869.38
2022-09-10T17:07:33.281Z,100861.00
2022-09-10T17:10:01.544Z,100867.66
2022-09-10T17:12:29.812Z,100869.63
2022-09-10T17:14:58.063Z,100874.25
2022-09-10T17:17:26.315Z,100879.88
2022-09-10T17:19:54.604Z,100876.56
2022-09-10T17:22:22.851Z,100890.28
2022-09-10T17:24:53.963Z,100887.72
2022-09-10T17:27:25.380Z,100892.69
2022-09-10T17:29:53.968Z,100899.84
2022-09-10T17:32:22.285Z,100893.88
2022-09-10T17:34:51.583Z,100900.91
2022-09-10T17:37:19.987Z,100907.47
2022-09-10T17:39:48.338Z,100908.91
2022-09-10T17:42:18.008Z,100907.78
2022-09-10T17:44:47.203Z,100904.53
2022-09-10T17:47:15.434Z,100911.47
2022-09-10T17:49:44.259Z,100918.81
2022-09-10T17:52:14.586Z,100924.56
2022-09-10T17:54:43.038Z,100929.63
2022-09-10T17:57:11.413Z,100928.16
2022-09-10T17:59:41.050Z,100927.88
2022-09-10T18:02:13.994Z,100939.81
2022-09-10T18:04:42.552Z,100929.16
2022-09-10T18:07:11.944Z,100944.28
2022-09-10T18:09:40.173Z,100947.28
2022-09-10T18:12:08.789Z,100947.78
2022-09-10T18:14:38.494Z,100956.72
2022-09-10T18:17:08.132Z,100962.19
2022-09-10T18:19:36.544Z,100971.81
2022-09-10T18:22:05.246Z,100982.88
2022-09-10T18:24:33.613Z,100982.47
2022-09-10T18:27:04.609Z,100988.19
2022-09-10T18:29:33.338Z,100988.06
2022-09-10T18:32:02.114Z,100992.78
2022-09-10T18:34:32.496Z,101002.25
2022-09-10T18:37:02.852Z,101003.06
2022-09-10T18:39:33.586Z,101001.59
2022-09-10T18:42:02.807Z,101005.84
2022-09-10T18:44:34.312Z,101019.28
2022-09-10T18:47:02.569Z,101024.78
2022-09-10T18:49:33.579Z,101030.81
2022-09-10T18:52:02.014Z,101026.91
2022-09-10T18:54:30.540Z,101033.91
2022-09-10T18:56:59.066Z,101044.78
2022-09-10T18:59:27.498Z,101048.16
2022-09-10T19:01:56.922Z,101046.22
2022-09-10T19:04:28.096Z,101048.22
2022-09-10T19:06:58.632Z,101044.03
2022-09-10T19:09:31.377Z,101046.28
2022-09-10T19:12:01.370Z,101049.38
2022-09-10T19:14:32.455Z,101060.53
2022-09-10T19:17:02.287Z,101060.50
2022-09-10T19:19:33.094Z,101062.50
2022-09-10T19:22:07.153Z,101063.41
2022-09-10T19:24:54.989Z,101074.22
2022-09-10T19:27:24.330Z,101073.06
2022-09-10T19:29:53.777Z,101076.13
2022-09-10T19:32:22.146Z,101085.38
2022-09-10T19:34:51.326Z,101080.00
2022-09-10T19:37:21.099Z,101081.38
2022-09-10T19:39:49.536Z,101085.41
2022-09-10T19:42:18.279Z,101085.09
2022-09-10T19:44:46.519Z,101083.78
2022-09-10T19:47:14.770Z,101089.88
2022-09-10T19:49:43.198Z,101093.28
2022-09-10T19:52:11.772Z,101095.53
2022-09-10T19:54:41.361Z,101098.28
2022-09-10T19:57:09.607Z,101097.78
2022-09-10T19:59:38.146Z,101092.47
2022-09-10T20:02:06.502Z,101095.81
2022-09-10T20:04:35.981Z,101097.78
2022-09-10T20:07:04.260Z,101104.19
2022-09-10T20:09:34.762Z,101106.72
2022-09-10T20:12:06.859Z,101111.72
2022-09-10T20:14:35.087Z,101110.81
2022-09-10T20:17:03.458Z,101110.59
2022-09-10T20:19:31.749Z,101110.53
2022-09-10T20:22:00.001Z,101120.34
2022-09-10T20:24:28.732Z,101111.41
2022-09-10T20:26:57.075Z,101116.19
2022-09-10T20:29:28.467Z,101114.22
2022-09-10T20:31:56.704Z,101110.91
2022-09-10T20:34:25.515Z,101109.75
2022-09-10T20:36:53.943Z,101117.81
2022-09-10T20:39:25.234Z,101120.66
2022-09-10T20:41:53.922Z,101121.97
2022-09-10T20:44:23.043Z,101129.22
2022-09-10T20:46:52.937Z,101124.00
2022-09-10T20:49:21.359Z,101121.19
2022-09-10T20:51:49.787Z,101127.09
2022-09-10T20:54:20.228Z,101136.28
2022-09-10T20:56:48.857Z,101136.56
2022-09-10T20:59:19.254Z,101139.34
2022-09-10T21:01:50.785Z,101146.63
2022-09-10T21:04:21.922Z,101149.66
2022-09-10T21:06:50.177Z,101156.06
2022-09-10T21:09:18.592Z,101148.53
2022-09-10T21:11:46.832Z,101161.44
2022-09-10T21:14:15.320Z,101161.72
2022-09-10T21:16:47.252Z,101167.06
2022-09-10T21:19:17.831Z,101166.22
2022-09-10T21:21:48.852Z,101165.13
2022-09-10T21:24:22.561Z,101161.94
2022-09-10T21:26:53.287Z,101165.97
2022-09-10T21:29:23.071Z,101170.38
2022-09-10T21:31:53.352Z,101168.09
2022-09-10T21:34:21.662Z,101170.03
2022-09-10T21:36:51.416Z,101171.97
2022-09-10T21:39:19.771Z,101176.19
2022-09-10T21:41:51.273Z,101173.09
2022-09-10T21:44:22.137Z,101177.34
2022-09-10T21:46:51.281Z,101177.59
2022-09-10T21:49:20.220Z,101178.41
2022-09-10T21:51:50.329Z,101175.03
2022-09-10T21:54:20.710Z,101175.06
2022-09-10T21:56:49.804Z,101179.94
2022-09-10T21:59:18.591Z,101182.44
2022-09-10T22:01:48.081Z,101184.72
2022-09-10T22:04:21.699Z,101182.22
2022-09-10T22:06:54.390Z,101190.31
2022-09-10T22:09:24.374Z,101195.88
2022-09-10T22:11:54.282Z,101202.09
2022-09-10T22:14:25.362Z,101200.09
2022-09-10T22:16:55.030Z,101205.66
2022-09-10T22:19:26.105Z,101210.44
2022-09-10T22:21:56.907Z,101210.75
2022-09-10T22:24:26.075Z,101209.00
2022-09-10T22:26:54.607Z,101209.84
2022-09-10T22:29:23.068Z,101215.41
2022-09-10T22:31:51.327Z,101215.72
2022-09-10T22:34:20.755Z,101219.38
2022-09-10T22:36:49.576Z,101213.00
2022-09-10T22:39:22.242Z,101211.03
2022-09-10T22:41:52.024Z,101221.41
2022-09-10T22:44:20.566Z,101222.53
2022-09-10T22:46:48.967Z,101217.75
2022-09-10T22:49:18.019Z,101216.56
2022-09-10T22:51:46.305Z,101213.53
2022-09-10T22:54:14.849Z,101216.63
2022-09-10T22:56:44.745Z,101211.31
2022-09-10T22:59:14.629Z,101219.41
2022-09-10T23:01:47.438Z,101223.06
2022-09-10T23:04:16.126Z,101220.53
2022-09-10T23:06:44.409Z,101225.88
2022-09-10T23:09:15.358Z,101233.69
2022-09-10T23:11:46.173Z,101233.69
2022-09-10T23:14:19.262Z,101230.03
2022-09-10T23:16:49.936Z,101235.09
2022-09-10T23:19:21.549Z,101234.28
2022-09-10T23:21:52.358Z,101231.19
2022-09-10T23:24:24.217Z,101226.09
2022-09-10T23:26:54.521Z,101235.38
2022-09-10T23:29:24.143Z,101235.94
2022-09-10T23:31:54.342Z,101232.88
2022-09-10T23:34:23.773Z,101237.63
2022-09-10T23:36:53.653Z,101244.06
2022-09-10T23:39:23.622Z,101234.81
2022-09-10T23:41:56.745Z,101239.88
2022-09-10T23:44:25.344Z,101238.72
2022-09-10T23:46:55.527Z,101239.88
2022-09-10T23:49:24.986Z,101250.19
2022-09-10T23:51:53.246Z,101240.69
2022-09-10T23:54:21.580Z,101248.25
2022-09-10T23:56:49.848Z,101240.44
2022-09-10T23:59:19.491Z,101242.38
